createdAt,value
2023-06-01T00:00:14.749Z,1314.00
2023-06-01T00:01:14.822Z,1304.00
2023-06-01T00:02:14.904Z,1294.00
2023-06-01T00:03:15.124Z,1306.00
2023-06-01T00:04:15.050Z,1304.00
2023-06-01T00:05:15.052Z,1312.00
2023-06-01T00:06:15.140Z,1295.00
2023-06-01T00:07:15.181Z,1287.00
2023-06-01T00:08:15.227Z,1311.00
2023-06-01T00:09:15.287Z,1306.00
2023-06-01T00:10:15.359Z,1296.00
2023-06-01T00:11:15.432Z,1306.00
2023-06-01T00:12:15.495Z,1304.00
2023-06-01T00:13:15.556Z,1302.00
2023-06-01T00:14:15.599Z,1289.00
2023-06-01T00:15:15.663Z,1295.00
2023-06-01T00:16:15.751Z,1291.00
2023-06-01T00:17:15.785Z,1296.00
2023-06-01T00:18:15.864Z,1293.00
2023-06-01T00:19:15.937Z,1300.00
2023-06-01T00:20:15.977Z,1284.00
2023-06-01T00:21:16.099Z,1291.00
2023-06-01T00:22:16.093Z,1297.00
2023-06-01T00:23:16.160Z,1292.00
2023-06-01T00:24:16.236Z,1298.00
2023-06-01T00:25:16.300Z,1288.00
2023-06-01T00:26:16.351Z,1294.00
2023-06-01T00:27:16.416Z,1284.00
2023-06-01T00:28:16.504Z,1294.00
2023-06-01T00:29:16.570Z,1285.00
2023-06-01T00:30:16.594Z,1286.00
2023-06-01T00:31:16.673Z,1286.00
2023-06-01T00:32:16.724Z,1291.00
2023-06-01T00:33:16.791Z,1270.00
2023-06-01T00:34:16.834Z,1279.00
2023-06-01T00:35:16.889Z,1283.00
2023-06-01T00:36:16.981Z,1278.00
2023-06-01T00:37:17.026Z,1284.00
2023-06-01T00:38:17.085Z,1286.00
2023-06-01T00:39:17.148Z,1280.00
2023-06-01T00:40:17.238Z,1274.00
2023-06-01T00:41:17.253Z,1278.00
2023-06-01T00:42:17.324Z,1283.00
2023-06-01T00:43:17.396Z,1284.00
2023-06-01T00:44:17.471Z,1275.00
2023-06-01T00:45:17.507Z,1260.00
2023-06-01T00:46:17.607Z,1269.00
2023-06-01T00:47:17.651Z,1261.00
2023-06-01T00:48:17.677Z,1274.00
2023-06-01T00:49:17.739Z,1260.00
2023-06-01T00:50:17.887Z,1269.00
2023-06-01T00:51:17.852Z,1265.00
2023-06-01T00:52:17.918Z,1264.00
2023-06-01T00:53:17.993Z,1266.00
2023-06-01T00:54:18.056Z,1261.00
2023-06-01T00:55:18.110Z,1259.00
2023-06-01T00:56:18.253Z,1274.00
2023-06-01T00:57:18.221Z,1262.00
2023-06-01T00:58:18.336Z,1264.00
2023-06-01T00:59:18.371Z,1263.00
2023-06-01T01:00:18.465Z,1257.00
2023-06-01T01:01:18.585Z,1257.00
2023-06-01T01:02:18.526Z,1256.00
2023-06-01T01:03:18.633Z,1257.00
2023-06-01T01:04:18.770Z,1253.00
2023-06-01T01:05:18.719Z,1250.00
2023-06-01T01:06:18.771Z,1255.00
2023-06-01T01:07:18.840Z,1249.00
2023-06-01T01:08:18.936Z,1263.00
2023-06-01T01:09:18.970Z,1250.00
2023-06-01T01:10:19.029Z,1258.00
2023-06-01T01:11:19.102Z,1247.00
2023-06-01T01:12:19.125Z,1253.00
2023-06-01T01:13:19.196Z,1255.00
2023-06-01T01:14:19.275Z,1248.00
2023-06-01T01:15:19.334Z,1254.00
2023-06-01T01:16:19.437Z,1256.00
2023-06-01T01:17:19.465Z,1249.00
2023-06-01T01:18:19.534Z,1256.00
2023-06-01T01:19:19.594Z,1238.00
2023-06-01T01:20:19.670Z,1240.00
2023-06-01T01:21:19.755Z,1246.00
2023-06-01T01:22:19.782Z,1229.00
2023-06-01T01:23:19.840Z,1242.00
2023-06-01T01:24:19.893Z,1231.00
2023-06-01T01:25:19.976Z,1243.00
2023-06-01T01:26:20.022Z,1236.00
2023-06-01T01:27:20.071Z,1257.00
2023-06-01T01:28:20.140Z,1231.00
2023-06-01T01:29:20.194Z,1225.00
2023-06-01T01:30:20.258Z,1226.00
2023-06-01T01:31:20.355Z,1235.00
2023-06-01T01:32:20.402Z,1235.00
2023-06-01T01:33:20.487Z,1234.00
2023-06-01T01:34:20.518Z,1228.00
2023-06-01T01:35:20.543Z,1231.00
2023-06-01T01:36:20.591Z,1222.00
2023-06-01T01:37:20.671Z,1226.00
2023-06-01T01:38:20.740Z,1228.00
2023-06-01T01:39:20.767Z,1227.00
2023-06-01T01:40:20.828Z,1229.00
2023-06-01T01:41:20.898Z,1222.00
2023-06-01T01:42:20.914Z,1226.00
2023-06-01T01:43:20.988Z,1210.00
2023-06-01T01:44:21.042Z,1224.00
2023-06-01T01:45:21.159Z,1230.00
2023-06-01T01:46:21.124Z,1222.00
2023-06-01T01:47:21.277Z,1228.00
2023-06-01T01:48:21.290Z,1220.00
2023-06-01T01:49:21.285Z,1222.00
2023-06-01T01:50:21.324Z,1220.00
2023-06-01T01:51:21.376Z,1208.00
2023-06-01T01:52:21.430Z,1204.00
2023-06-01T01:53:21.476Z,1218.00
2023-06-01T01:54:21.526Z,1210.00
2023-06-01T01:55:21.553Z,1205.00
2023-06-01T01:56:21.589Z,1212.00
2023-06-01T01:57:21.640Z,1216.00
2023-06-01T01:58:21.715Z,1216.00
2023-06-01T01:59:21.744Z,1205.00
2023-06-01T02:00:21.757Z,1217.00
2023-06-01T02:01:21.838Z,1214.00
2023-06-01T02:02:21.905Z,1208.00
2023-06-01T02:03:22.001Z,1206.00
2023-06-01T02:04:21.930Z,1198.00
2023-06-01T02:05:21.970Z,1209.00
2023-06-01T02:06:21.972Z,1204.00
2023-06-01T02:07:22.019Z,1200.00
2023-06-01T02:08:22.058Z,1205.00
2023-06-01T02:09:22.111Z,1214.00
2023-06-01T02:10:22.153Z,1200.00
2023-06-01T02:11:22.180Z,1208.00
2023-06-01T02:12:22.225Z,1204.00
2023-06-01T02:13:22.270Z,1198.00
2023-06-01T02:14:22.325Z,1201.00
2023-06-01T02:15:22.383Z,1195.00
2023-06-01T02:16:22.481Z,1187.00
2023-06-01T02:17:22.487Z,1201.00
2023-06-01T02:18:22.504Z,1195.00
2023-06-01T02:19:22.549Z,1195.00
2023-06-01T02:20:22.588Z,1192.00
2023-06-01T02:21:22.615Z,1200.00
2023-06-01T02:22:22.622Z,1195.00
2023-06-01T02:23:22.645Z,1196.00
2023-06-01T02:24:22.662Z,1198.00
2023-06-01T02:25:22.691Z,1193.00
2023-06-01T02:26:22.732Z,1184.00
2023-06-01T02:27:22.746Z,1185.00
2023-06-01T02:28:22.790Z,1195.00
2023-06-01T02:29:22.780Z,1189.00
2023-06-01T02:30:22.810Z,1189.00
2023-06-01T02:31:22.914Z,1179.00
2023-06-01T02:32:22.901Z,1183.00
2023-06-01T02:33:22.954Z,1190.00
2023-06-01T02:34:23.002Z,1174.00
2023-06-01T02:35:23.020Z,1177.00
2023-06-01T02:36:23.070Z,1170.00
2023-06-01T02:37:23.096Z,1181.00
2023-06-01T02:38:23.148Z,1187.00
2023-06-01T02:39:23.134Z,1178.00
2023-06-01T02:40:23.174Z,1183.00
2023-06-01T02:41:23.190Z,1176.00
2023-06-01T02:42:23.206Z,1183.00
2023-06-01T02:43:23.249Z,1177.00
2023-06-01T02:44:23.293Z,1184.00
2023-06-01T02:45:23.304Z,1179.00
2023-06-01T02:46:23.375Z,1174.00
2023-06-01T02:47:23.370Z,1170.00
2023-06-01T02:48:23.370Z,1172.00
2023-06-01T02:49:23.402Z,1169.00
2023-06-01T02:50:23.444Z,1168.00
2023-06-01T02:51:23.426Z,1174.00
2023-06-01T02:52:23.441Z,1171.00
2023-06-01T02:53:23.462Z,1173.00
2023-06-01T02:54:23.529Z,1170.00
2023-06-01T02:55:23.494Z,1167.00
2023-06-01T02:56:23.501Z,1173.00
2023-06-01T02:57:23.579Z,1158.00
2023-06-01T02:58:23.539Z,1169.00
2023-06-01T02:59:23.590Z,1164.00
2023-06-01T03:00:23.623Z,1163.00
2023-06-01T03:01:23.684Z,1163.00
2023-06-01T03:02:23.657Z,1158.00
2023-06-01T03:03:23.702Z,1177.00
2023-06-01T03:04:23.836Z,1160.00
2023-06-01T03:05:23.778Z,1162.00
2023-06-01T03:06:23.837Z,1159.00
2023-06-01T03:07:23.860Z,1160.00
2023-06-01T03:08:23.871Z,1170.00
2023-06-01T03:09:23.901Z,1156.00
2023-06-01T03:10:23.934Z,1148.00
2023-06-01T03:11:23.976Z,1148.00
2023-06-01T03:12:23.984Z,1158.00
2023-06-01T03:13:24.039Z,1152.00
2023-06-01T03:14:24.050Z,1162.00
2023-06-01T03:15:24.053Z,1163.00
2023-06-01T03:16:24.120Z,1144.00
2023-06-01T03:17:24.154Z,1144.00
2023-06-01T03:18:24.145Z,1141.00
2023-06-01T03:19:24.084Z,1144.00
2023-06-01T03:20:24.092Z,1144.00
2023-06-01T03:21:24.088Z,1139.00
2023-06-01T03:22:24.086Z,1151.00
2023-06-01T03:23:24.121Z,1138.00
2023-06-01T03:24:24.189Z,1149.00
2023-06-01T03:25:24.090Z,1142.00
2023-06-01T03:26:24.103Z,1142.00
2023-06-01T03:27:24.103Z,1145.00
2023-06-01T03:28:24.116Z,1139.00
2023-06-01T03:29:24.116Z,1135.00
2023-06-01T03:30:24.095Z,1147.00
2023-06-01T03:31:24.109Z,1138.00
2023-06-01T03:32:24.112Z,1132.00
2023-06-01T03:33:24.124Z,1135.00
2023-06-01T03:34:24.135Z,1129.00
2023-06-01T03:35:24.118Z,1129.00
2023-06-01T03:36:24.140Z,1130.00
2023-06-01T03:37:24.141Z,1128.00
2023-06-01T03:38:24.198Z,1127.00
2023-06-01T03:39:24.152Z,1125.00
2023-06-01T03:40:24.152Z,1124.00
2023-06-01T03:41:24.184Z,1113.00
2023-06-01T03:42:24.177Z,1120.00
2023-06-01T03:43:24.197Z,1135.00
2023-06-01T03:44:24.196Z,1129.00
2023-06-01T03:45:24.199Z,1117.00
2023-06-01T03:46:24.206Z,1115.00
2023-06-01T03:47:24.197Z,1129.00
2023-06-01T03:48:24.228Z,1127.00
2023-06-01T03:49:24.202Z,1119.00
2023-06-01T03:50:24.203Z,1125.00
2023-06-01T03:51:24.221Z,1117.00
2023-06-01T03:52:24.243Z,1123.00
2023-06-01T03:53:24.204Z,1111.00
2023-06-01T03:54:24.209Z,1120.00
2023-06-01T03:55:24.200Z,1116.00
2023-06-01T03:56:24.205Z,1121.00
2023-06-01T03:57:24.225Z,1113.00
2023-06-01T03:58:24.203Z,1127.00
2023-06-01T03:59:24.213Z,1112.00
2023-06-01T04:00:24.248Z,1115.00
2023-06-01T04:01:24.193Z,1105.00
2023-06-01T04:02:24.329Z,1113.00
2023-06-01T04:03:24.281Z,1112.00
2023-06-01T04:04:24.265Z,1106.00
2023-06-01T04:05:24.187Z,1101.00
2023-06-01T04:06:24.203Z,1104.00
2023-06-01T04:07:24.194Z,1106.00
2023-06-01T04:08:24.223Z,1099.00
2023-06-01T04:09:24.191Z,1106.00
2023-06-01T04:10:24.213Z,1104.00
2023-06-01T04:11:24.246Z,1097.00
2023-06-01T04:12:24.222Z,1111.00
2023-06-01T04:13:24.665Z,1096.00
2023-06-01T04:14:24.210Z,1107.00
2023-06-01T04:15:24.255Z,1106.00
2023-06-01T04:16:24.293Z,1095.00
2023-06-01T04:17:24.311Z,1096.00
2023-06-01T04:18:24.274Z,1098.00
2023-06-01T04:19:24.277Z,1100.00
2023-06-01T04:20:24.299Z,1096.00
2023-06-01T04:21:24.376Z,1105.00
2023-06-01T04:22:24.297Z,1094.00
2023-06-01T04:23:24.320Z,1100.00
2023-06-01T04:24:24.311Z,1099.00
2023-06-01T04:25:24.338Z,1085.00
2023-06-01T04:26:24.333Z,1086.00
2023-06-01T04:27:24.342Z,1097.00
2023-06-01T04:28:24.369Z,1089.00
2023-06-01T04:29:24.358Z,1102.00
2023-06-01T04:30:24.376Z,1082.00
2023-06-01T04:31:24.381Z,1082.00
2023-06-01T04:32:24.385Z,1090.00
2023-06-01T04:33:24.382Z,1092.00
2023-06-01T04:34:24.456Z,1090.00
2023-06-01T04:35:24.438Z,1073.00
2023-06-01T04:36:24.444Z,1080.00
2023-06-01T04:37:24.413Z,1081.00
2023-06-01T04:38:24.416Z,1088.00
2023-06-01T04:39:24.386Z,1093.00
2023-06-01T04:40:24.408Z,1079.00
2023-06-01T04:41:24.425Z,1082.00
2023-06-01T04:42:24.448Z,1080.00
2023-06-01T04:43:24.486Z,1070.00
2023-06-01T04:44:24.526Z,1076.00
2023-06-01T04:45:24.552Z,1086.00
2023-06-01T04:46:24.771Z,1069.00
2023-06-01T04:47:24.638Z,1072.00
2023-06-01T04:48:24.656Z,1078.00
2023-06-01T04:49:24.692Z,1063.00
2023-06-01T04:50:24.759Z,1078.00
2023-06-01T04:51:24.827Z,1068.00
2023-06-01T04:52:24.848Z,1082.00
2023-06-01T04:53:24.906Z,1073.00
2023-06-01T04:54:24.939Z,1061.00
2023-06-01T04:55:24.990Z,1080.00
2023-06-01T04:56:25.054Z,1062.00
2023-06-01T04:57:25.091Z,1078.00
2023-06-01T04:58:25.215Z,1058.00
2023-06-01T04:59:25.170Z,1055.00
2023-06-01T05:00:25.233Z,1062.00
2023-06-01T05:01:25.279Z,1051.00
2023-06-01T05:02:25.325Z,1062.00
2023-06-01T05:03:25.433Z,1056.00
2023-06-01T05:04:25.369Z,1052.00
2023-06-01T05:05:25.431Z,1046.00
2023-06-01T05:06:25.462Z,1045.00
2023-06-01T05:07:25.498Z,1051.00
2023-06-01T05:08:25.524Z,1044.00
2023-06-01T05:09:25.539Z,1048.00
2023-06-01T05:10:25.576Z,1031.00
2023-06-01T05:11:25.599Z,1039.00
2023-06-01T05:12:25.665Z,1038.00
2023-06-01T05:13:25.692Z,1038.00
2023-06-01T05:14:25.713Z,1045.00
2023-06-01T05:15:25.735Z,1032.00
2023-06-01T05:16:25.906Z,1035.00
2023-06-01T05:17:25.851Z,1035.00
2023-06-01T05:18:25.922Z,1030.00
2023-06-01T05:19:25.999Z,1020.00
2023-06-01T05:20:25.949Z,1027.00
2023-06-01T05:21:26.019Z,1026.00
2023-06-01T05:22:26.004Z,1027.00
2023-06-01T05:23:26.104Z,1028.00
2023-06-01T05:24:26.086Z,1025.00
2023-06-01T05:25:26.111Z,1024.00
2023-06-01T05:26:26.238Z,1027.00
2023-06-01T05:27:26.175Z,1019.00
2023-06-01T05:28:26.229Z,1012.00
2023-06-01T05:29:26.235Z,1011.00
2023-06-01T05:30:26.281Z,1019.00
2023-06-01T05:31:26.337Z,1007.00
2023-06-01T05:32:26.291Z,1007.00
2023-06-01T05:33:26.377Z,1022.00
2023-06-01T05:34:26.448Z,1020.00
2023-06-01T05:35:26.424Z,1011.00
2023-06-01T05:36:26.446Z,1011.00
2023-06-01T05:37:26.478Z,1016.00
2023-06-01T05:38:26.552Z,1032.00
2023-06-01T05:39:26.603Z,1059.00
2023-06-01T05:40:26.690Z,1077.00
2023-06-01T05:41:26.725Z,1075.00
2023-06-01T05:42:26.773Z,1059.00
2023-06-01T05:43:26.816Z,1039.00
2023-06-01T05:44:26.859Z,1026.00
2023-06-01T05:45:26.908Z,1023.00
2023-06-01T05:46:27.042Z,1008.00
2023-06-01T05:47:27.001Z,995.00
2023-06-01T05:48:27.042Z,991.00
2023-06-01T05:49:27.057Z,995.00
2023-06-01T05:50:27.090Z,993.00
2023-06-01T05:51:27.129Z,977.00
2023-06-01T05:52:27.181Z,961.00
2023-06-01T05:53:27.250Z,952.00
2023-06-01T05:54:27.274Z,923.00
2023-06-01T05:55:27.329Z,928.00
2023-06-01T05:56:27.396Z,922.00
2023-06-01T05:57:27.509Z,902.00
2023-06-01T05:58:27.604Z,897.00
2023-06-01T05:59:27.555Z,885.00
2023-06-01T06:00:27.614Z,881.00
2023-06-01T06:01:27.685Z,867.00
2023-06-01T06:02:27.932Z,876.00
2023-06-01T06:03:28.263Z,873.00
2023-06-01T06:04:27.996Z,858.00
2023-06-01T06:05:27.909Z,846.00
2023-06-01T06:06:28.681Z,834.00
2023-06-01T06:07:27.996Z,821.00
2023-06-01T06:08:28.050Z,803.00
2023-06-01T06:09:28.057Z,794.00
2023-06-01T06:10:28.096Z,790.00
2023-06-01T06:11:28.147Z,782.00
2023-06-01T06:12:28.183Z,744.00
2023-06-01T06:13:28.717Z,745.00
2023-06-01T06:14:28.306Z,732.00
2023-06-01T06:15:28.256Z,728.00
2023-06-01T06:16:28.275Z,705.00
2023-06-01T06:17:28.338Z,706.00
2023-06-01T06:18:28.337Z,702.00
2023-06-01T06:19:28.330Z,706.00
2023-06-01T06:20:28.418Z,693.00
2023-06-01T06:21:28.401Z,703.00
2023-06-01T06:22:28.390Z,686.00
2023-06-01T06:23:28.421Z,685.00
2023-06-01T06:24:28.454Z,683.00
2023-06-01T06:25:28.434Z,695.00
2023-06-01T06:26:28.427Z,684.00
2023-06-01T06:27:28.423Z,667.00
2023-06-01T06:28:28.455Z,663.00
2023-06-01T06:29:28.442Z,661.00
2023-06-01T06:30:28.450Z,657.00
2023-06-01T06:31:28.489Z,651.00
2023-06-01T06:32:28.502Z,649.00
2023-06-01T06:33:28.537Z,641.00
2023-06-01T06:34:28.465Z,643.00
2023-06-01T06:35:28.447Z,641.00
2023-06-01T06:36:28.445Z,639.00
2023-06-01T06:37:28.474Z,630.00
2023-06-01T06:38:28.746Z,627.00
2023-06-01T06:39:28.507Z,633.00
2023-06-01T06:40:28.544Z,628.00
2023-06-01T06:41:28.517Z,629.00
2023-06-01T06:42:28.544Z,628.00
2023-06-01T06:43:28.725Z,631.00
2023-06-01T06:44:28.574Z,633.00
2023-06-01T06:45:28.565Z,630.00
2023-06-01T06:46:28.614Z,630.00
2023-06-01T06:47:28.627Z,625.00
2023-06-01T06:48:28.687Z,623.00
2023-06-01T06:49:28.637Z,619.00
2023-06-01T06:50:28.722Z,610.00
2023-06-01T06:51:28.707Z,613.00
2023-06-01T06:52:28.753Z,617.00
2023-06-01T06:53:28.817Z,606.00
2023-06-01T06:54:28.805Z,602.00
2023-06-01T06:55:28.859Z,606.00
2023-06-01T06:56:28.933Z,598.00
2023-06-01T06:57:28.990Z,593.00
2023-06-01T06:58:29.009Z,595.00
2023-06-01T06:59:29.024Z,602.00
2023-06-01T07:00:29.095Z,596.00
2023-06-01T07:01:29.139Z,603.00
2023-06-01T07:02:29.243Z,598.00
2023-06-01T07:03:29.385Z,602.00
2023-06-01T07:04:29.275Z,592.00
2023-06-01T07:05:29.354Z,595.00
2023-06-01T07:06:29.382Z,592.00
2023-06-01T07:07:29.467Z,588.00
2023-06-01T07:08:32.218Z,593.00
2023-06-01T07:09:29.471Z,590.00
2023-06-01T07:10:29.481Z,595.00
2023-06-01T07:11:29.460Z,593.00
2023-06-01T07:12:29.473Z,588.00
2023-06-01T07:13:29.490Z,591.00
2023-06-01T07:14:29.475Z,588.00
2023-06-01T07:15:29.433Z,588.00
2023-06-01T07:16:29.515Z,586.00
2023-06-01T07:17:29.484Z,585.00
2023-06-01T07:18:29.448Z,582.00
2023-06-01T07:19:29.397Z,580.00
2023-06-01T07:20:29.421Z,582.00
2023-06-01T07:21:29.494Z,584.00
2023-06-01T07:22:29.373Z,583.00
2023-06-01T07:23:29.513Z,580.00
2023-06-01T07:24:29.452Z,579.00
2023-06-01T07:25:29.402Z,569.00
2023-06-01T07:26:29.453Z,543.00
2023-06-01T07:27:29.349Z,559.00
2023-06-01T07:28:29.425Z,580.00
2023-06-01T07:29:29.352Z,599.00
2023-06-01T07:30:29.600Z,596.00
2023-06-01T07:31:29.375Z,601.00
2023-06-01T07:32:29.548Z,543.00
2023-06-01T07:33:29.392Z,493.00
2023-06-01T07:34:29.315Z,463.00
2023-06-01T07:35:29.283Z,459.00
2023-06-01T07:36:29.309Z,484.00
2023-06-01T07:37:29.273Z,486.00
2023-06-01T07:38:29.748Z,507.00
2023-06-01T07:39:29.256Z,503.00
2023-06-01T07:40:29.269Z,506.00
2023-06-01T07:41:29.255Z,501.00
2023-06-01T07:42:29.250Z,510.00
2023-06-01T07:43:29.282Z,500.00
2023-06-01T07:44:29.246Z,503.00
2023-06-01T07:45:29.264Z,501.00
2023-06-01T07:46:29.388Z,500.00
2023-06-01T07:47:29.431Z,503.00
2023-06-01T07:48:29.483Z,525.00
2023-06-01T07:49:29.517Z,560.00
2023-06-01T07:50:29.574Z,564.00
2023-06-01T07:51:29.637Z,578.00
2023-06-01T07:52:29.710Z,586.00
2023-06-01T07:53:29.825Z,598.00
2023-06-01T07:54:29.908Z,611.00
2023-06-01T07:55:29.937Z,612.00
2023-06-01T07:56:29.948Z,624.00
2023-06-01T07:57:30.080Z,594.00
2023-06-01T07:58:30.125Z,600.00
2023-06-01T07:59:30.185Z,617.00
2023-06-01T08:00:30.211Z,624.00
2023-06-01T08:01:30.276Z,634.00
2023-06-01T08:02:30.356Z,622.00
2023-06-01T08:03:30.551Z,630.00
2023-06-01T08:04:30.499Z,646.00
2023-06-01T08:05:30.575Z,664.00
2023-06-01T08:06:30.563Z,655.00
2023-06-01T08:07:30.683Z,644.00
2023-06-01T08:08:30.667Z,643.00
2023-06-01T08:09:30.729Z,635.00
2023-06-01T08:10:30.800Z,645.00
2023-06-01T08:11:30.834Z,637.00
2023-06-01T08:12:30.985Z,639.00
2023-06-01T08:13:31.038Z,651.00
2023-06-01T08:14:31.057Z,660.00
2023-06-01T08:15:31.064Z,714.00
2023-06-01T08:16:31.151Z,640.00
2023-06-01T08:17:31.349Z,636.00
2023-06-01T08:18:31.783Z,658.00
2023-06-01T08:19:31.319Z,689.00
2023-06-01T08:20:31.461Z,694.00
2023-06-01T08:21:31.425Z,725.00
2023-06-01T08:22:31.441Z,777.00
2023-06-01T08:23:31.593Z,774.00
2023-06-01T08:24:31.532Z,739.00
2023-06-01T08:25:31.589Z,797.00
2023-06-01T08:26:31.756Z,907.00
2023-06-01T08:27:31.700Z,999.00
2023-06-01T08:28:31.718Z,1083.00
2023-06-01T08:29:42.041Z,1163.00
2023-06-01T08:30:32.792Z,1165.00
2023-06-01T08:31:31.786Z,1176.00
2023-06-01T08:32:31.764Z,1218.00
2023-06-01T08:33:31.746Z,1293.00
2023-06-01T08:34:31.721Z,1399.00
2023-06-01T08:35:31.697Z,1430.00
2023-06-01T08:36:31.755Z,1447.00
2023-06-01T08:37:31.694Z,1475.00
2023-06-01T08:38:31.691Z,1485.00
2023-06-01T08:39:31.724Z,1486.00
2023-06-01T08:40:31.701Z,1368.00
2023-06-01T08:41:31.777Z,1322.00
2023-06-01T08:42:31.658Z,1363.00
2023-06-01T08:43:31.679Z,1423.00
2023-06-01T08:44:31.651Z,1496.00
2023-06-01T08:45:31.677Z,1005.00
2023-06-01T08:46:31.771Z,986.00
2023-06-01T08:47:31.721Z,1271.00
2023-06-01T08:48:31.728Z,1426.00
2023-06-01T08:49:31.707Z,1518.00
2023-06-01T08:50:31.744Z,1535.00
2023-06-01T08:51:31.791Z,1578.00
2023-06-01T08:52:31.789Z,1599.00
2023-06-01T08:53:31.847Z,1568.00
2023-06-01T08:54:31.791Z,1623.00
2023-06-01T08:55:31.805Z,1595.00
2023-06-01T08:56:31.824Z,1600.00
2023-06-01T08:57:31.951Z,1607.00
2023-06-01T08:58:31.962Z,1268.00
2023-06-01T08:59:31.931Z,814.00
2023-06-01T09:00:31.960Z,721.00
2023-06-01T09:01:32.006Z,831.00
2023-06-01T09:02:32.015Z,829.00
2023-06-01T09:03:32.080Z,1121.00
2023-06-01T09:04:32.119Z,1259.00
2023-06-01T09:05:32.197Z,661.00
2023-06-01T09:06:32.209Z,595.00
2023-06-01T09:07:32.223Z,651.00
2023-06-01T09:08:32.325Z,505.00
2023-06-01T09:09:32.487Z,567.00
2023-06-01T09:10:32.313Z,693.00
2023-06-01T09:11:32.308Z,954.00
2023-06-01T09:12:32.313Z,1105.00
2023-06-01T09:13:32.338Z,697.00
2023-06-01T09:14:32.331Z,540.00
2023-06-01T09:15:32.396Z,611.00
2023-06-01T09:16:32.341Z,798.00
2023-06-01T09:17:32.426Z,980.00
2023-06-01T09:18:32.550Z,1125.00
2023-06-01T09:19:32.611Z,1224.00
2023-06-01T09:20:32.686Z,1357.00
2023-06-01T09:21:32.826Z,1448.00
2023-06-01T09:22:32.821Z,1491.00
2023-06-01T09:23:32.824Z,1550.00
2023-06-01T09:24:32.815Z,1586.00
2023-06-01T09:25:32.842Z,1560.00
2023-06-01T09:26:32.849Z,1512.00
2023-06-01T09:27:32.895Z,1430.00
2023-06-01T09:28:32.900Z,1339.00
2023-06-01T09:29:32.940Z,988.00
2023-06-01T09:30:32.999Z,859.00
2023-06-01T09:31:33.133Z,906.00
2023-06-01T09:32:33.046Z,806.00
2023-06-01T09:33:33.016Z,904.00
2023-06-01T09:34:33.060Z,960.00
2023-06-01T09:35:33.070Z,1136.00
2023-06-01T09:36:33.122Z,1222.00
2023-06-01T09:37:33.203Z,1092.00
2023-06-01T09:38:33.188Z,1318.00
2023-06-01T09:39:33.239Z,1446.00
2023-06-01T09:40:33.257Z,1432.00
2023-06-01T09:41:33.324Z,1370.00
2023-06-01T09:42:33.348Z,1326.00
2023-06-01T09:43:33.408Z,1264.00
2023-06-01T09:44:33.481Z,1086.00
2023-06-01T09:45:33.549Z,973.00
2023-06-01T09:46:33.661Z,942.00
2023-06-01T09:47:33.722Z,1026.00
2023-06-01T09:48:33.713Z,680.00
2023-06-01T09:49:33.831Z,840.00
2023-06-01T09:50:33.829Z,925.00
2023-06-01T09:51:33.881Z,432.00
2023-06-01T09:52:33.924Z,400.00
2023-06-01T09:53:33.997Z,481.00
2023-06-01T09:54:34.027Z,610.00
2023-06-01T09:55:34.119Z,643.00
2023-06-01T09:56:34.550Z,804.00
2023-06-01T09:57:34.240Z,740.00
2023-06-01T09:58:34.301Z,828.00
2023-06-01T09:59:34.337Z,1046.00
2023-06-01T10:00:34.394Z,1220.00
2023-06-01T10:01:34.480Z,677.00
2023-06-01T10:02:34.591Z,450.00
2023-06-01T10:03:34.578Z,407.00
2023-06-01T10:04:34.626Z,400.00
2023-06-01T10:05:34.620Z,400.00
2023-06-01T10:06:34.661Z,438.00
2023-06-01T10:07:34.723Z,611.00
2023-06-01T10:08:34.794Z,550.00
2023-06-01T10:09:34.858Z,637.00
2023-06-01T10:10:34.933Z,622.00
2023-06-01T10:11:34.969Z,626.00
2023-06-01T10:12:35.168Z,878.00
2023-06-01T10:13:35.078Z,1140.00
2023-06-01T10:14:35.152Z,1288.00
2023-06-01T10:15:35.197Z,1007.00
2023-06-01T10:16:35.269Z,1203.00
2023-06-01T10:17:36.554Z,1158.00
2023-06-01T10:18:35.304Z,1049.00
2023-06-01T10:19:35.261Z,1298.00
2023-06-01T10:20:35.275Z,1569.00
2023-06-01T10:21:35.281Z,1786.00
2023-06-01T10:22:35.259Z,1559.00
2023-06-01T10:23:35.287Z,1639.00
2023-06-01T10:24:35.238Z,1800.00
2023-06-01T10:25:35.243Z,1762.00
2023-06-01T10:26:35.244Z,1833.00
2023-06-01T10:27:35.251Z,1656.00
2023-06-01T10:28:35.278Z,1393.00
2023-06-01T10:29:35.239Z,1455.00
2023-06-01T10:30:35.207Z,1426.00
2023-06-01T10:31:35.264Z,1348.00
2023-06-01T10:32:35.192Z,1102.00
2023-06-01T10:33:35.352Z,575.00
2023-06-01T10:34:35.186Z,400.00
2023-06-01T10:35:35.223Z,400.00
2023-06-01T10:36:35.165Z,400.00
2023-06-01T10:37:35.208Z,474.00
2023-06-01T10:38:35.225Z,480.00
2023-06-01T10:39:37.266Z,530.00
2023-06-01T10:40:35.136Z,532.00
2023-06-01T10:41:35.154Z,556.00
2023-06-01T10:42:35.146Z,604.00
2023-06-01T10:43:35.378Z,839.00
2023-06-01T10:44:35.106Z,1163.00
2023-06-01T10:45:35.287Z,1267.00
2023-06-01T10:46:35.113Z,984.00
2023-06-01T10:47:35.320Z,599.00
2023-06-01T10:48:35.083Z,611.00
2023-06-01T10:49:35.087Z,770.00
2023-06-01T10:50:35.083Z,621.00
2023-06-01T10:51:35.050Z,785.00
2023-06-01T10:52:35.059Z,690.00
2023-06-01T10:53:35.029Z,656.00
2023-06-01T10:54:35.064Z,798.00
2023-06-01T10:55:35.025Z,726.00
2023-06-01T10:56:35.040Z,801.00
2023-06-01T10:57:35.064Z,948.00
2023-06-01T10:58:35.034Z,855.00
2023-06-01T10:59:35.025Z,662.00
2023-06-01T11:00:35.014Z,869.00
2023-06-01T11:01:35.006Z,1166.00
2023-06-01T11:02:35.046Z,1368.00
2023-06-01T11:03:34.981Z,1303.00
2023-06-01T11:04:35.147Z,1108.00
2023-06-01T11:05:35.004Z,1008.00
2023-06-01T11:06:34.946Z,803.00
2023-06-01T11:07:34.932Z,951.00
2023-06-01T11:08:34.947Z,788.00
2023-06-01T11:09:34.923Z,790.00
2023-06-01T11:10:34.947Z,855.00
2023-06-01T11:11:34.948Z,838.00
2023-06-01T11:12:34.941Z,900.00
2023-06-01T11:13:34.890Z,1055.00
2023-06-01T11:14:35.285Z,1100.00
2023-06-01T11:15:34.941Z,1230.00
2023-06-01T11:16:34.922Z,1389.00
2023-06-01T11:17:34.927Z,1655.00
2023-06-01T11:18:34.947Z,1827.00
2023-06-01T11:19:34.879Z,2040.00
2023-06-01T11:20:34.871Z,2186.00
2023-06-01T11:21:34.896Z,2318.00
2023-06-01T11:22:34.858Z,2364.00
2023-06-01T11:23:34.861Z,2451.00
2023-06-01T11:24:34.910Z,2555.00
2023-06-01T11:25:34.959Z,2630.00
2023-06-01T11:26:34.971Z,2704.00
2023-06-01T11:27:34.976Z,2745.00
2023-06-01T11:28:34.968Z,2786.00
2023-06-01T11:29:34.982Z,2814.00
2023-06-01T11:30:35.000Z,2875.00
2023-06-01T11:31:35.009Z,2932.00
2023-06-01T11:32:35.026Z,2959.00
2023-06-01T11:33:35.012Z,2994.00
2023-06-01T11:34:34.976Z,3030.00
2023-06-01T11:35:34.983Z,3069.00
2023-06-01T11:36:34.985Z,3133.00
2023-06-01T11:37:35.029Z,3143.00
2023-06-01T11:38:35.617Z,3168.00
2023-06-01T11:39:35.027Z,3202.00
2023-06-01T11:40:39.522Z,3234.00
2023-06-01T11:41:36.027Z,3235.00
2023-06-01T11:42:35.030Z,3245.00
2023-06-01T11:43:35.027Z,3258.00
2023-06-01T11:44:35.063Z,3307.00
2023-06-01T11:45:35.037Z,3355.00
2023-06-01T11:46:35.029Z,3401.00
2023-06-01T11:47:35.018Z,3401.00
2023-06-01T11:48:35.028Z,3425.00
2023-06-01T11:49:35.003Z,3432.00
2023-06-01T11:50:35.004Z,3469.00
2023-06-01T11:51:34.974Z,3474.00
2023-06-01T11:52:34.960Z,3491.00
2023-06-01T11:53:34.960Z,3511.00
2023-06-01T11:54:34.970Z,3531.00
2023-06-01T11:55:34.946Z,3533.00
2023-06-01T11:56:34.960Z,3550.00
2023-06-01T11:57:34.941Z,3570.00
2023-06-01T11:58:34.943Z,3574.00
2023-06-01T11:59:34.924Z,3586.00
2023-06-01T12:00:34.941Z,3589.00
2023-06-01T12:01:34.905Z,3602.00
2023-06-01T12:02:34.993Z,3604.00
2023-06-01T12:03:34.957Z,3630.00
2023-06-01T12:04:35.012Z,3645.00
2023-06-01T12:05:34.892Z,3620.00
2023-06-01T12:06:34.907Z,3639.00
2023-06-01T12:07:34.923Z,3640.00
2023-06-01T12:08:34.956Z,3647.00
2023-06-01T12:09:34.952Z,3657.00
2023-06-01T12:10:34.964Z,3645.00
2023-06-01T12:11:34.988Z,3654.00
2023-06-01T12:12:35.027Z,3665.00
2023-06-01T12:13:35.066Z,3677.00